createdAt,value
2019-04-01T00:00:20.023Z,1021.71
2019-04-01T00:01:20.009Z,1021.70
2019-04-01T00:02:20.003Z,1021.74
2019-04-01T00:03:19.990Z,1021.68
2019-04-01T00:04:19.973Z,1021.69
2019-04-01T00:05:19.963Z,1021.73
2019-04-01T00:06:19.951Z,1021.76
2019-04-01T00:07:19.939Z,1021.75
2019-04-01T00:08:19.923Z,1021.75
2019-04-01T00:09:19.915Z,1021.81
2019-04-01T00:10:19.909Z,1021.82
2019-04-01T00:11:19.909Z,1021.84
2019-04-01T00:12:19.877Z,1021.88
2019-04-01T00:13:19.881Z,1021.83
2019-04-01T00:14:19.888Z,1021.88
2019-04-01T00:15:21.911Z,1021.90
2019-04-01T00:16:19.849Z,1021.85
2019-04-01T00:17:19.821Z,1021.86
2019-04-01T00:18:19.835Z,1021.86
2019-04-01T00:19:19.801Z,1021.84
2019-04-01T00:20:19.810Z,1021.80
2019-04-01T00:21:19.781Z,1021.91
2019-04-01T00:22:19.771Z,1021.82
2019-04-01T00:23:19.756Z,1021.76
2019-04-01T00:24:19.754Z,1021.88
2019-04-01T00:25:19.736Z,1021.80
2019-04-01T00:26:19.737Z,1021.79
2019-04-01T00:27:19.717Z,1021.74
2019-04-01T00:28:19.702Z,1021.84
2019-04-01T00:29:19.706Z,1021.77
2019-04-01T00:30:19.682Z,1021.77
2019-04-01T00:31:19.684Z,1021.77
2019-04-01T00:32:19.658Z,1021.81
2019-04-01T00:33:19.646Z,1021.79
2019-04-01T00:34:19.636Z,1021.76
2019-04-01T00:35:19.624Z,1021.73
2019-04-01T00:36:19.623Z,1021.76
2019-04-01T00:37:19.607Z,1021.79
2019-04-01T00:38:19.612Z,1021.77
2019-04-01T00:39:19.590Z,1021.76
2019-04-01T00:40:19.573Z,1021.77
2019-04-01T00:41:19.559Z,1021.78
2019-04-01T00:42:19.550Z,1021.82
2019-04-01T00:43:19.558Z,1021.79
2019-04-01T00:44:19.545Z,1021.82
2019-04-01T00:45:19.516Z,1021.78
2019-04-01T00:46:19.505Z,1021.82
2019-04-01T00:47:19.489Z,1021.76
2019-04-01T00:48:19.501Z,1021.85
2019-04-01T00:49:19.472Z,1021.82
2019-04-01T00:50:19.473Z,1021.90
2019-04-01T00:51:19.455Z,1021.79
2019-04-01T00:52:19.460Z,1021.86
2019-04-01T00:53:19.441Z,1021.80
2019-04-01T00:54:19.462Z,1021.82
2019-04-01T00:55:19.399Z,1021.76
2019-04-01T00:56:19.397Z,1021.83
2019-04-01T00:57:19.404Z,1021.83
2019-04-01T00:58:19.369Z,1021.85
2019-04-01T00:59:19.366Z,1021.85
2019-04-01T01:00:19.351Z,1021.82
2019-04-01T01:01:19.356Z,1021.84
2019-04-01T01:02:19.332Z,1021.82
2019-04-01T01:03:19.313Z,1021.83
2019-04-01T01:04:19.342Z,1021.75
2019-04-01T01:05:19.292Z,1021.79
2019-04-01T01:06:19.277Z,1021.85
2019-04-01T01:07:19.279Z,1021.79
2019-04-01T01:08:19.278Z,1021.86
2019-04-01T01:09:19.280Z,1021.82
2019-04-01T01:10:19.242Z,1021.81
2019-04-01T01:11:19.242Z,1021.85
2019-04-01T01:12:19.214Z,1021.81
2019-04-01T01:13:19.223Z,1021.78
2019-04-01T01:14:19.970Z,1021.78
2019-04-01T01:15:27.840Z,1021.80
2019-04-01T01:17:01.356Z,1021.78
2019-04-01T01:18:09.952Z,1021.77
2019-04-01T01:19:42.984Z,1021.87
2019-04-01T01:20:42.987Z,1021.79
2019-04-01T01:21:42.950Z,1021.79
2019-04-01T01:22:42.950Z,1021.79
2019-04-01T01:23:42.942Z,1021.78
2019-04-01T01:24:42.921Z,1021.84
2019-04-01T01:25:42.907Z,1021.77
2019-04-01T01:26:42.897Z,1021.77
2019-04-01T01:27:42.877Z,1021.89
2019-04-01T01:28:42.925Z,1021.89
2019-04-01T01:29:42.865Z,1021.86
2019-04-01T01:30:42.845Z,1021.83
2019-04-01T01:31:42.838Z,1021.82
2019-04-01T01:32:42.827Z,1021.91
2019-04-01T01:33:42.825Z,1021.82
2019-04-01T01:34:42.801Z,1021.82
2019-04-01T01:35:42.798Z,1021.84
2019-04-01T01:36:42.783Z,1021.91
2019-04-01T01:37:42.775Z,1021.87
2019-04-01T01:38:42.761Z,1021.84
2019-04-01T01:39:42.757Z,1021.93
2019-04-01T01:40:42.739Z,1021.95
2019-04-01T01:41:42.721Z,1021.94
2019-04-01T01:42:42.717Z,1021.90
2019-04-01T01:43:42.707Z,1021.95
2019-04-01T01:44:42.691Z,1021.89
2019-04-01T01:45:42.679Z,1021.95
2019-04-01T01:46:42.677Z,1021.87
2019-04-01T01:47:42.742Z,1021.82
2019-04-01T01:48:42.663Z,1021.93
2019-04-01T01:49:42.643Z,1021.93
2019-04-01T01:50:42.638Z,1021.93
2019-04-01T01:51:42.610Z,1021.94
2019-04-01T01:52:42.607Z,1021.92
2019-04-01T01:53:42.588Z,1021.93
2019-04-01T01:54:42.584Z,1021.90
2019-04-01T01:55:42.573Z,1021.93
2019-04-01T01:56:42.558Z,1021.96
2019-04-01T01:57:42.546Z,1021.94
2019-04-01T01:58:42.542Z,1022.04
2019-04-01T01:59:42.531Z,1022.00
2019-04-01T02:00:42.516Z,1022.08
2019-04-01T02:01:42.501Z,1021.95
2019-04-01T02:02:42.490Z,1022.01
2019-04-01T02:03:42.487Z,1022.05
2019-04-01T02:04:42.473Z,1021.95
2019-04-01T02:05:42.464Z,1021.95
2019-04-01T02:06:42.452Z,1021.98
2019-04-01T02:07:42.442Z,1021.98
2019-04-01T02:08:42.426Z,1022.00
2019-04-01T02:09:42.410Z,1022.00
2019-04-01T02:10:42.420Z,1021.98
2019-04-01T02:11:42.396Z,1021.95
2019-04-01T02:12:42.378Z,1022.04
2019-04-01T02:13:42.371Z,1022.09
2019-04-01T02:14:42.355Z,1022.10
2019-04-01T02:15:42.355Z,1022.03
2019-04-01T02:16:42.345Z,1021.98
2019-04-01T02:17:42.333Z,1022.07
2019-04-01T02:18:42.321Z,1022.04
2019-04-01T02:19:42.307Z,1022.06
2019-04-01T02:20:42.300Z,1021.98
2019-04-01T02:21:42.277Z,1022.07
2019-04-01T02:22:42.275Z,1022.03
2019-04-01T02:23:42.259Z,1022.03
2019-04-01T02:24:42.247Z,1022.07
2019-04-01T02:25:42.235Z,1022.05
2019-04-01T02:26:42.223Z,1022.00
2019-04-01T02:27:42.225Z,1022.04
2019-04-01T02:28:42.207Z,1022.02
2019-04-01T02:29:42.195Z,1022.07
2019-04-01T02:30:42.189Z,1022.04
2019-04-01T02:31:42.179Z,1022.00
2019-04-01T02:32:42.159Z,1022.09
2019-04-01T02:33:42.159Z,1022.07
2019-04-01T02:34:42.145Z,1022.05
2019-04-01T02:35:42.131Z,1022.03
2019-04-01T02:36:42.116Z,1022.02
2019-04-01T02:37:42.104Z,1022.08
2019-04-01T02:38:42.099Z,1022.09
2019-04-01T02:39:42.087Z,1022.06
2019-04-01T02:40:42.071Z,1022.08
2019-04-01T02:41:42.062Z,1022.15
2019-04-01T02:42:42.062Z,1022.09
2019-04-01T02:43:42.043Z,1022.14
2019-04-01T02:44:42.039Z,1022.11
2019-04-01T02:45:42.017Z,1022.11
2019-04-01T02:46:42.015Z,1022.12
2019-04-01T02:47:41.997Z,1022.04
2019-04-01T02:48:41.991Z,1022.02
2019-04-01T02:49:41.974Z,1022.14
2019-04-01T02:50:42.003Z,1022.08
2019-04-01T02:51:41.961Z,1022.11
2019-04-01T02:52:41.938Z,1022.11
2019-04-01T02:53:42.015Z,1022.11
2019-04-01T02:54:41.926Z,1022.09
2019-04-01T02:55:42.019Z,1022.04
2019-04-01T02:56:41.911Z,1022.11
2019-04-01T02:57:41.892Z,1022.02
2019-04-01T02:58:41.871Z,1022.06
2019-04-01T02:59:41.860Z,1022.03
2019-04-01T03:00:41.858Z,1022.05
2019-04-01T03:01:41.946Z,1022.04
2019-04-01T03:02:41.837Z,1022.09
2019-04-01T03:03:41.821Z,1022.07
2019-04-01T03:04:41.810Z,1022.07
2019-04-01T03:05:41.798Z,1022.09
2019-04-01T03:06:41.793Z,1022.09
2019-04-01T03:07:41.892Z,1022.09
2019-04-01T03:08:41.764Z,1022.10
2019-04-01T03:09:41.762Z,1022.08
2019-04-01T03:10:41.742Z,1022.09
2019-04-01T03:11:41.745Z,1022.13
2019-04-01T03:12:41.731Z,1022.13
2019-04-01T03:13:41.707Z,1022.12
2019-04-01T03:14:41.701Z,1022.14
2019-04-01T03:15:41.689Z,1022.16
2019-04-01T03:16:41.689Z,1022.10
2019-04-01T03:17:41.670Z,1022.11
2019-04-01T03:18:41.653Z,1022.17
2019-04-01T03:19:41.641Z,1022.15
2019-04-01T03:20:41.749Z,1022.16
2019-04-01T03:21:41.622Z,1022.17
2019-04-01T03:22:41.616Z,1022.12
2019-04-01T03:23:41.625Z,1022.16
2019-04-01T03:24:41.609Z,1022.14
2019-04-01T03:25:41.593Z,1022.13
2019-04-01T03:26:41.581Z,1022.10
2019-04-01T03:27:41.564Z,1022.08
2019-04-01T03:28:41.556Z,1022.08
2019-04-01T03:29:41.550Z,1022.16
2019-04-01T03:30:41.589Z,1022.20
2019-04-01T03:31:41.543Z,1022.18
2019-04-01T03:32:45.385Z,1022.23
2019-04-01T03:33:41.485Z,1022.17
2019-04-01T03:34:41.482Z,1022.18
2019-04-01T03:35:41.467Z,1022.11
2019-04-01T03:36:41.472Z,1022.12
2019-04-01T03:37:41.439Z,1022.18
2019-04-01T03:38:41.439Z,1022.16
2019-04-01T03:39:41.427Z,1022.14
2019-04-01T03:40:41.437Z,1022.08
2019-04-01T03:41:41.405Z,1022.16
2019-04-01T03:42:41.389Z,1022.14
2019-04-01T03:43:41.379Z,1022.16
2019-04-01T03:44:41.368Z,1022.17
2019-04-01T03:45:41.370Z,1022.12
2019-04-01T03:46:41.348Z,1022.20
2019-04-01T03:47:41.349Z,1022.17
2019-04-01T03:48:41.363Z,1022.13
2019-04-01T03:49:41.326Z,1022.13
2019-04-01T03:50:41.305Z,1022.08
2019-04-01T03:51:41.296Z,1022.10
2019-04-01T03:52:41.283Z,1022.15
2019-04-01T03:53:41.270Z,1022.15
2019-04-01T03:54:41.264Z,1022.11
2019-04-01T03:55:41.250Z,1022.10
2019-04-01T03:56:41.251Z,1022.15
2019-04-01T03:58:32.028Z,1022.15
2019-04-01T03:59:31.991Z,1022.11
2019-04-01T04:00:31.982Z,1022.04
2019-04-01T04:01:31.983Z,1022.17
2019-04-01T04:02:31.969Z,1022.09
2019-04-01T04:03:31.953Z,1022.11
2019-04-01T04:04:31.947Z,1022.11
2019-04-01T04:05:31.931Z,1022.15
2019-04-01T04:06:31.922Z,1022.16
2019-04-01T04:07:31.947Z,1022.11
2019-04-01T04:08:31.907Z,1022.14
2019-04-01T04:09:31.892Z,1022.14
2019-04-01T04:10:31.896Z,1022.15
2019-04-01T04:11:31.871Z,1022.11
2019-04-01T04:12:31.875Z,1022.15
2019-04-01T04:13:31.845Z,1022.13
2019-04-01T04:14:31.836Z,1022.16
2019-04-01T04:15:31.822Z,1022.16
2019-04-01T04:16:31.807Z,1022.09
2019-04-01T04:17:31.792Z,1022.15
2019-04-01T04:18:31.803Z,1022.12
2019-04-01T04:19:31.795Z,1022.13
2019-04-01T04:20:31.770Z,1022.15
2019-04-01T04:21:31.764Z,1022.16
2019-04-01T04:22:31.746Z,1022.23
2019-04-01T04:23:31.732Z,1022.23
2019-04-01T04:24:31.741Z,1022.25
2019-04-01T04:25:31.706Z,1022.26
2019-04-01T04:26:31.698Z,1022.25
2019-04-01T04:27:31.688Z,1022.21
2019-04-01T04:28:31.677Z,1022.27
2019-04-01T04:29:31.671Z,1022.24
2019-04-01T04:30:31.664Z,1022.23
2019-04-01T04:31:31.648Z,1022.24
2019-04-01T04:32:31.639Z,1022.25
2019-04-01T04:33:31.626Z,1022.19
2019-04-01T04:34:31.651Z,1022.16
2019-04-01T04:35:31.616Z,1022.16
2019-04-01T04:36:31.622Z,1022.18
2019-04-01T04:37:31.591Z,1022.28
2019-04-01T04:38:31.602Z,1022.26
2019-04-01T04:39:31.677Z,1022.26
2019-04-01T04:40:31.559Z,1022.29
2019-04-01T04:41:31.670Z,1022.25
2019-04-01T04:42:31.553Z,1022.26
2019-04-01T04:43:31.695Z,1022.27
2019-04-01T04:44:31.517Z,1022.34
2019-04-01T04:45:31.538Z,1022.33
2019-04-01T04:46:31.492Z,1022.36
2019-04-01T04:47:31.489Z,1022.32
2019-04-01T04:48:31.495Z,1022.28
2019-04-01T04:49:31.466Z,1022.26
2019-04-01T04:50:31.855Z,1022.34
2019-04-01T04:51:31.455Z,1022.38
2019-04-01T04:52:31.428Z,1022.40
2019-04-01T04:53:31.428Z,1022.33
2019-04-01T04:54:31.434Z,1022.36
2019-04-01T04:55:31.394Z,1022.42
2019-04-01T04:56:31.385Z,1022.42
2019-04-01T04:57:31.382Z,1022.42
2019-04-01T04:58:31.377Z,1022.42
2019-04-01T04:59:31.360Z,1022.41
2019-04-01T05:00:31.349Z,1022.46
2019-04-01T05:01:31.330Z,1022.46
2019-04-01T05:02:31.330Z,1022.42
2019-04-01T05:03:31.307Z,1022.45
2019-04-01T05:04:31.462Z,1022.45
2019-04-01T05:05:31.291Z,1022.42
2019-04-01T05:06:31.363Z,1022.43
2019-04-01T05:07:31.631Z,1022.48
2019-04-01T05:08:31.256Z,1022.47
2019-04-01T05:09:31.478Z,1022.51
2019-04-01T05:10:31.351Z,1022.47
2019-04-01T05:11:31.265Z,1022.49
2019-04-01T05:12:31.208Z,1022.51
2019-04-01T05:13:31.202Z,1022.57
2019-04-01T05:14:31.211Z,1022.52
2019-04-01T05:15:31.184Z,1022.52
2019-04-01T05:16:31.173Z,1022.48
2019-04-01T05:17:31.160Z,1022.57
2019-04-01T05:18:31.153Z,1022.60
2019-04-01T05:19:31.150Z,1022.62
2019-04-01T05:20:31.229Z,1022.65
2019-04-01T05:21:31.139Z,1022.65
2019-04-01T05:22:31.112Z,1022.61
2019-04-01T05:23:31.103Z,1022.68
2019-04-01T05:24:31.080Z,1022.66
2019-04-01T05:25:32.010Z,1022.68
2019-04-01T05:26:31.100Z,1022.62
2019-04-01T05:27:31.054Z,1022.61
2019-04-01T05:28:31.045Z,1022.68
2019-04-01T05:29:31.073Z,1022.68
2019-04-01T05:30:31.082Z,1022.63
2019-04-01T05:31:31.195Z,1022.68
2019-04-01T05:32:31.003Z,1022.68
2019-04-01T05:33:31.009Z,1022.68
2019-04-01T05:34:30.993Z,1022.70
2019-04-01T05:35:31.020Z,1022.70
2019-04-01T05:36:30.969Z,1022.72
2019-04-01T05:37:30.963Z,1022.69
2019-04-01T05:38:30.977Z,1022.75
2019-04-01T05:39:30.932Z,1022.76
2019-04-01T05:40:30.965Z,1022.73
2019-04-01T05:41:30.896Z,1022.74
2019-04-01T05:42:30.908Z,1022.81
2019-04-01T05:43:30.875Z,1022.81
2019-04-01T05:44:30.878Z,1022.73
2019-04-01T05:45:30.882Z,1022.83
2019-04-01T05:46:30.870Z,1022.70
2019-04-01T05:47:30.884Z,1022.79
2019-04-01T05:48:30.901Z,1022.80
2019-04-01T05:49:30.827Z,1022.80
2019-04-01T05:50:30.820Z,1022.84
2019-04-01T05:51:30.816Z,1022.82
2019-04-01T05:52:30.786Z,1022.83
2019-04-01T05:53:30.778Z,1022.83
2019-04-01T05:54:30.766Z,1022.79
2019-04-01T05:55:30.806Z,1022.82
2019-04-01T05:56:30.747Z,1022.83
2019-04-01T05:57:30.767Z,1022.88
2019-04-01T05:58:30.712Z,1022.84
2019-04-01T05:59:30.711Z,1022.89
2019-04-01T06:00:30.696Z,1022.90
2019-04-01T06:01:30.710Z,1022.89
2019-04-01T06:02:30.695Z,1022.88
2019-04-01T06:03:30.695Z,1022.96
2019-04-01T06:04:30.648Z,1022.89
2019-04-01T06:05:30.654Z,1022.90
2019-04-01T06:06:30.632Z,1023.01
2019-04-01T06:07:30.627Z,1022.87
2019-04-01T06:08:30.629Z,1022.91
2019-04-01T06:09:30.621Z,1022.95
2019-04-01T06:10:30.662Z,1022.89
2019-04-01T06:11:30.584Z,1022.92
2019-04-01T06:12:30.578Z,1022.87
2019-04-01T06:13:30.568Z,1022.92
2019-04-01T06:14:30.567Z,1022.90
2019-04-01T06:15:30.548Z,1022.92
2019-04-01T06:16:30.527Z,1022.96
2019-04-01T06:17:30.571Z,1022.93
2019-04-01T06:18:30.501Z,1022.89
2019-04-01T06:19:30.500Z,1022.85
2019-04-01T06:20:30.491Z,1022.89
2019-04-01T06:21:30.493Z,1022.87
2019-04-01T06:22:30.463Z,1022.88
2019-04-01T06:23:30.528Z,1022.88
2019-04-01T06:24:30.537Z,1022.86
2019-04-01T06:25:30.454Z,1022.91
2019-04-01T06:26:30.474Z,1022.95
2019-04-01T06:27:30.742Z,1022.89
2019-04-01T06:28:30.406Z,1022.88
2019-04-01T06:29:30.389Z,1022.94
2019-04-01T06:30:30.392Z,1022.93
2019-04-01T06:31:30.375Z,1022.96
2019-04-01T06:32:30.370Z,1022.98
2019-04-01T06:33:30.346Z,1022.97
2019-04-01T06:34:30.341Z,1022.99
2019-04-01T06:35:30.348Z,1022.95
2019-04-01T06:36:30.308Z,1022.94
2019-04-01T06:37:30.318Z,1022.98
2019-04-01T06:38:30.312Z,1022.99
2019-04-01T06:39:30.277Z,1022.97
2019-04-01T06:40:30.264Z,1023.01
2019-04-01T06:41:30.247Z,1023.05
2019-04-01T06:42:30.254Z,1023.04
2019-04-01T06:43:30.254Z,1023.02
2019-04-01T06:44:30.220Z,1023.04
2019-04-01T06:45:30.211Z,1023.00
2019-04-01T06:46:30.213Z,1023.08
2019-04-01T06:47:30.188Z,1023.05
2019-04-01T06:48:30.185Z,1023.03
2019-04-01T06:49:30.180Z,1023.11
2019-04-01T06:50:30.156Z,1023.07
2019-04-01T06:51:30.147Z,1023.10
2019-04-01T06:52:30.204Z,1023.14
2019-04-01T06:53:30.224Z,1023.17
2019-04-01T06:54:30.124Z,1023.14
2019-04-01T06:55:30.125Z,1023.17
2019-04-01T06:56:30.112Z,1023.10
2019-04-01T06:57:30.085Z,1023.12
2019-04-01T06:58:30.075Z,1023.13
2019-04-01T06:59:30.059Z,1023.13
2019-04-01T07:00:30.099Z,1023.14
2019-04-01T07:01:30.045Z,1023.15
2019-04-01T07:02:30.047Z,1023.15
2019-04-01T07:03:30.014Z,1023.12
2019-04-01T07:04:30.038Z,1023.14
2019-04-01T07:05:30.013Z,1023.12
2019-04-01T07:06:29.991Z,1023.16
2019-04-01T07:07:30.013Z,1023.13
2019-04-01T07:08:29.965Z,1023.11
2019-04-01T07:09:29.969Z,1023.16
2019-04-01T07:10:29.983Z,1023.17
2019-04-01T07:11:30.027Z,1023.18
2019-04-01T07:12:30.035Z,1023.09
2019-04-01T07:13:29.901Z,1023.14
2019-04-01T07:14:29.889Z,1023.10
2019-04-01T07:15:29.882Z,1023.18
2019-04-01T07:16:29.902Z,1023.17
2019-04-01T07:17:29.932Z,1023.19
2019-04-01T07:18:29.949Z,1023.16
2019-04-01T07:19:29.997Z,1023.21
2019-04-01T07:20:29.835Z,1023.15
2019-04-01T07:21:29.818Z,1023.14
2019-04-01T07:22:29.813Z,1023.12
2019-04-01T07:23:29.812Z,1023.18
2019-04-01T07:24:29.819Z,1023.21
2019-04-01T07:25:29.768Z,1023.19
2019-04-01T07:26:29.767Z,1023.16
2019-04-01T07:27:29.780Z,1023.17
2019-04-01T07:28:29.749Z,1023.19
2019-04-01T07:29:29.744Z,1023.16
2019-04-01T07:30:29.726Z,1023.20
2019-04-01T07:31:29.704Z,1023.15
2019-04-01T07:32:29.706Z,1023.15
2019-04-01T07:33:29.710Z,1023.23
2019-04-01T07:34:29.688Z,1023.21
2019-04-01T07:35:29.660Z,1023.20
2019-04-01T07:36:29.696Z,1023.22
2019-04-01T07:37:29.641Z,1023.23
2019-04-01T07:38:29.629Z,1023.20
2019-04-01T07:39:29.631Z,1023.23
2019-04-01T07:40:29.631Z,1023.24
2019-04-01T07:41:29.610Z,1023.25
2019-04-01T07:42:29.594Z,1023.21
2019-04-01T07:43:29.579Z,1023.22
2019-04-01T07:44:29.625Z,1023.23
2019-04-01T07:45:29.591Z,1023.27
2019-04-01T07:46:29.561Z,1023.23
2019-04-01T07:47:29.538Z,1023.31
2019-04-01T07:48:29.524Z,1023.29
2019-04-01T07:49:29.550Z,1023.26
2019-04-01T07:50:29.530Z,1023.21
2019-04-01T07:51:29.510Z,1023.29
2019-04-01T07:52:29.490Z,1023.33
2019-04-01T07:53:29.463Z,1023.38
2019-04-01T07:54:29.457Z,1023.25
2019-04-01T07:55:29.778Z,1023.22
2019-04-01T07:56:29.438Z,1023.24
2019-04-01T07:57:32.522Z,1023.23
2019-04-01T07:58:29.450Z,1023.28
2019-04-01T07:59:29.413Z,1023.33
2019-04-01T08:00:29.411Z,1023.31
2019-04-01T08:01:29.381Z,1023.25
2019-04-01T08:02:29.521Z,1023.31
2019-04-01T08:03:29.390Z,1023.36
2019-04-01T08:04:29.536Z,1023.28
2019-04-01T08:05:29.396Z,1023.25
2019-04-01T08:06:29.331Z,1023.28
2019-04-01T08:07:29.320Z,1023.33
2019-04-01T08:08:29.324Z,1023.32
2019-04-01T08:09:29.328Z,1023.35
2019-04-01T08:10:29.345Z,1023.41
2019-04-01T08:11:29.341Z,1023.33
2019-04-01T08:12:29.362Z,1023.36
2019-04-01T08:13:29.305Z,1023.39
2019-04-01T08:14:29.359Z,1023.33
2019-04-01T08:15:29.259Z,1023.32
2019-04-01T08:16:29.219Z,1023.29
2019-04-01T08:17:29.330Z,1023.35
2019-04-01T08:18:29.279Z,1023.34
2019-04-01T08:19:29.199Z,1023.31
2019-04-01T08:20:29.211Z,1023.31
2019-04-01T08:21:29.350Z,1023.36
2019-04-01T08:22:29.160Z,1023.25
2019-04-01T08:23:29.165Z,1023.31
2019-04-01T08:24:29.129Z,1023.33
2019-04-01T08:25:29.142Z,1023.36
2019-04-01T08:26:29.156Z,1023.47
2019-04-01T08:27:29.171Z,1023.43
2019-04-01T08:28:29.092Z,1023.32
2019-04-01T08:29:30.536Z,1023.44
2019-04-01T08:30:29.071Z,1023.35
2019-04-01T08:31:29.075Z,1023.33
2019-04-01T08:32:29.088Z,1023.27
2019-04-01T08:33:29.045Z,1023.16
2019-04-01T08:34:29.034Z,1023.11
2019-04-01T08:35:29.031Z,1023.09
2019-04-01T08:36:29.238Z,1023.18
2019-04-01T08:37:29.043Z,1023.10
2019-04-01T08:38:29.082Z,1023.16
2019-04-01T08:39:28.969Z,1023.17
2019-04-01T08:40:29.222Z,1023.35
2019-04-01T08:41:28.974Z,1023.23
2019-04-01T08:42:29.012Z,1023.33
2019-04-01T08:43:28.955Z,1023.29
2019-04-01T08:44:28.916Z,1023.27
2019-04-01T08:45:28.905Z,1023.24
2019-04-01T08:46:28.970Z,1023.25
2019-04-01T08:47:28.880Z,1023.30
2019-04-01T08:48:28.873Z,1023.28
2019-04-01T08:49:28.894Z,1023.37
2019-04-01T08:50:28.841Z,1023.37
2019-04-01T08:51:28.832Z,1023.37
2019-04-01T08:52:28.836Z,1023.34
2019-04-01T08:53:28.809Z,1023.21
2019-04-01T08:54:28.816Z,1023.34
2019-04-01T08:55:28.782Z,1023.32
2019-04-01T08:56:28.779Z,1023.28
2019-04-01T08:57:28.791Z,1023.39
2019-04-01T08:58:28.755Z,1023.35
2019-04-01T08:59:28.766Z,1023.07
2019-04-01T09:00:28.780Z,1023.14
2019-04-01T09:01:35.185Z,1023.04
2019-04-01T09:02:29.802Z,1023.10
2019-04-01T09:03:28.712Z,1023.07
2019-04-01T09:04:28.694Z,1023.14
2019-04-01T09:05:28.699Z,1023.12
2019-04-01T09:06:31.305Z,1023.05
2019-04-01T09:07:28.654Z,1023.08
2019-04-01T09:08:28.639Z,1023.12
2019-04-01T09:09:28.640Z,1023.17
2019-04-01T09:10:28.629Z,1023.13
2019-04-01T09:11:28.625Z,1023.12
2019-04-01T09:12:28.604Z,1023.18
2019-04-01T09:13:28.589Z,1023.25
2019-04-01T09:14:28.585Z,1023.19
2019-04-01T09:15:28.557Z,1023.20
2019-04-01T09:16:28.571Z,1023.11
2019-04-01T09:17:28.571Z,1023.10
2019-04-01T09:18:28.532Z,1023.06
2019-04-01T09:19:28.526Z,1023.13
2019-04-01T09:20:28.521Z,1023.10
2019-04-01T09:21:28.504Z,1023.11
2019-04-01T09:22:28.518Z,1023.06
2019-04-01T09:23:28.569Z,1023.06
2019-04-01T09:24:28.464Z,1023.03
2019-04-01T09:25:28.454Z,1022.99
2019-04-01T09:26:28.448Z,1023.01
2019-04-01T09:27:28.439Z,1022.96
2019-04-01T09:28:28.452Z,1023.00
2019-04-01T09:29:28.419Z,1022.97
2019-04-01T09:30:28.407Z,1022.98
2019-04-01T09:31:28.430Z,1023.01
2019-04-01T09:32:28.381Z,1022.99
2019-04-01T09:33:28.486Z,1023.06
2019-04-01T09:34:28.396Z,1022.98
2019-04-01T09:35:28.349Z,1022.96
2019-04-01T09:36:28.325Z,1022.96
2019-04-01T09:37:28.340Z,1022.98
2019-04-01T09:38:28.350Z,1022.99
2019-04-01T09:39:28.419Z,1022.94
2019-04-01T09:40:28.364Z,1022.93
2019-04-01T09:41:28.339Z,1022.95
2019-04-01T09:42:28.270Z,1023.00
2019-04-01T09:43:28.259Z,1022.93
2019-04-01T09:44:36.798Z,1022.95
2019-04-01T09:45:29.239Z,1023.02
2019-04-01T09:46:28.263Z,1022.89
2019-04-01T09:47:28.228Z,1022.94
2019-04-01T09:48:28.201Z,1022.94
2019-04-01T09:49:28.191Z,1022.91
2019-04-01T09:50:28.197Z,1022.94
2019-04-01T09:51:28.190Z,1022.94
2019-04-01T09:52:28.163Z,1022.96
2019-04-01T09:53:28.168Z,1022.91
2019-04-01T09:54:28.140Z,1022.86
2019-04-01T09:55:28.127Z,1022.89
2019-04-01T09:56:28.160Z,1022.91
2019-04-01T09:57:28.145Z,1022.83
2019-04-01T09:58:35.752Z,1022.75
2019-04-01T10:00:09.741Z,1022.77
2019-04-01T10:01:09.728Z,1022.78
2019-04-01T10:02:51.380Z,1022.79
2019-04-01T10:03:51.395Z,1022.79
2019-04-01T10:04:51.346Z,1022.70
2019-04-01T10:05:51.334Z,1022.70
2019-04-01T10:06:51.324Z,1022.66
2019-04-01T10:07:51.460Z,1022.70
2019-04-01T10:08:51.301Z,1022.74
2019-04-01T10:09:51.290Z,1022.70
2019-04-01T10:10:51.276Z,1022.68
2019-04-01T10:11:51.289Z,1022.66
2019-04-01T10:12:51.254Z,1022.59
2019-04-01T10:13:51.245Z,1022.57
2019-04-01T10:14:51.231Z,1022.65
2019-04-01T10:15:51.224Z,1022.67
2019-04-01T10:16:51.220Z,1022.65
2019-04-01T10:17:51.207Z,1022.57
2019-04-01T10:18:51.190Z,1022.56
2019-04-01T10:19:51.180Z,1022.50
2019-04-01T10:20:51.172Z,1022.58
2019-04-01T10:21:51.164Z,1022.60
2019-04-01T10:22:51.159Z,1022.51
2019-04-01T10:23:51.140Z,1022.54
2019-04-01T10:24:51.122Z,1022.53
2019-04-01T10:25:51.792Z,1022.57
2019-04-01T10:26:51.101Z,1022.49
2019-04-01T10:27:51.142Z,1022.46
2019-04-01T10:28:51.098Z,1022.54
2019-04-01T10:29:51.068Z,1022.50
2019-04-01T10:30:51.058Z,1022.46
2019-04-01T10:31:51.044Z,1022.44
2019-04-01T10:32:51.040Z,1022.42
2019-04-01T10:33:51.028Z,1022.41
2019-04-01T10:34:51.029Z,1022.45
2019-04-01T10:35:51.006Z,1022.41
2019-04-01T10:36:50.989Z,1022.44
2019-04-01T10:37:50.983Z,1022.41
2019-04-01T10:38:50.971Z,1022.40
2019-04-01T10:39:50.961Z,1022.39
2019-04-01T10:40:50.953Z,1022.50
2019-04-01T10:41:50.944Z,1022.35
2019-04-01T10:42:50.952Z,1022.50
2019-04-01T10:43:50.921Z,1022.41
2019-04-01T10:44:50.931Z,1022.38
2019-04-01T10:45:50.892Z,1022.35
2019-04-01T10:46:50.912Z,1022.35
2019-04-01T10:47:50.954Z,1022.40
2019-04-01T10:48:50.959Z,1022.34
2019-04-01T10:49:50.897Z,1022.23
2019-04-01T10:50:50.845Z,1022.27
2019-04-01T10:51:50.851Z,1022.27
2019-04-01T10:52:50.822Z,1022.17
2019-04-01T10:53:50.871Z,1022.18
2019-04-01T10:54:50.886Z,1022.27
2019-04-01T10:55:50.860Z,1022.24
2019-04-01T10:56:50.814Z,1022.16
2019-04-01T10:57:53.703Z,1022.10
2019-04-01T10:58:50.842Z,1022.10
2019-04-01T10:59:50.751Z,1022.17
2019-04-01T11:00:50.737Z,1022.15
2019-04-01T11:01:50.718Z,1022.14
2019-04-01T11:02:50.714Z,1022.13
2019-04-01T11:03:50.841Z,1022.01
2019-04-01T11:04:50.802Z,1022.05
2019-04-01T11:05:50.750Z,1022.10
2019-04-01T11:06:50.683Z,1022.02
2019-04-01T11:07:50.652Z,1022.06
2019-04-01T11:08:50.646Z,1022.08
2019-04-01T11:09:50.624Z,1022.14
2019-04-01T11:10:50.625Z,1022.03
2019-04-01T11:11:50.614Z,1022.07
2019-04-01T11:12:50.602Z,1022.10
2019-04-01T11:13:51.910Z,1022.04
2019-04-01T11:14:51.327Z,1021.98
2019-04-01T11:15:50.562Z,1021.95
2019-04-01T11:16:50.578Z,1021.97
2019-04-01T11:17:52.513Z,1022.02
2019-04-01T11:18:50.561Z,1021.95
2019-04-01T11:19:50.528Z,1021.94
2019-04-01T11:20:50.536Z,1021.99
2019-04-01T11:21:50.498Z,1021.95
2019-04-01T11:22:50.501Z,1021.99
2019-04-01T11:23:50.549Z,1021.89
2019-04-01T11:24:50.466Z,1021.86
2019-04-01T11:25:50.463Z,1021.83
2019-04-01T11:26:50.443Z,1021.78
2019-04-01T11:27:50.436Z,1021.73
2019-04-01T11:28:50.455Z,1021.77
2019-04-01T11:29:50.459Z,1021.82
2019-04-01T11:30:50.537Z,1021.89
2019-04-01T11:31:50.523Z,1021.79
2019-04-01T11:32:50.429Z,1021.83
2019-04-01T11:33:50.427Z,1021.83
2019-04-01T11:34:50.372Z,1021.84
2019-04-01T11:35:50.372Z,1021.83
2019-04-01T11:36:50.351Z,1021.80
2019-04-01T11:37:50.381Z,1021.71
2019-04-01T11:38:50.335Z,1021.73
2019-04-01T11:39:50.362Z,1021.66
2019-04-01T11:40:50.406Z,1021.63
2019-04-01T11:41:50.297Z,1021.65
2019-04-01T11:42:50.409Z,1021.61
2019-04-01T11:43:50.295Z,1021.63
2019-04-01T11:44:50.293Z,1021.64
2019-04-01T11:45:50.280Z,1021.65
2019-04-01T11:46:50.252Z,1021.64
2019-04-01T11:47:50.244Z,1021.63
2019-04-01T11:48:50.258Z,1021.59
2019-04-01T11:49:50.206Z,1021.53
2019-04-01T11:50:50.274Z,1021.47
2019-04-01T11:51:50.176Z,1021.41
2019-04-01T11:52:50.222Z,1021.53
2019-04-01T11:53:50.166Z,1021.50
2019-04-01T11:54:50.152Z,1021.47
2019-04-01T11:55:50.142Z,1021.46
2019-04-01T11:56:50.122Z,1021.45
2019-04-01T11:57:50.117Z,1021.50
2019-04-01T11:58:50.098Z,1021.49
2019-04-01T11:59:50.106Z,1021.47
2019-04-01T12:00:50.077Z,1021.41
2019-04-01T12:01:50.077Z,1021.40
2019-04-01T12:02:50.057Z,1021.38
2019-04-01T12:03:50.054Z,1021.33
2019-04-01T12:04:50.039Z,1021.25
2019-04-01T12:05:50.024Z,1021.28
2019-04-01T12:06:50.021Z,1021.29
2019-04-01T12:07:49.998Z,1021.31
2019-04-01T12:08:49.984Z,1021.25